sensor_id;sensor_type;location;lat;lon;timestamp;temperature;humidity
74488;DHT22;63019;51.080;13.642;2023-06-24T00:00:56;15.90;99.90
74488;DHT22;63019;51.080;13.642;2023-06-24T00:01:58;15.90;99.90
74488;DHT22;63019;51.080;13.642;2023-06-24T00:03:00;15.90;99.90
74488;DHT22;63019;51.080;13.642;2023-06-24T00:04:04;15.90;99.90
74488;DHT22;63019;51.080;13.642;2023-06-24T00:05:06;15.90;99.90
74488;DHT22;63019;51.080;13.642;2023-06-24T00:06:10;15.90;99.90
74488;DHT22;63019;51.080;13.642;2023-06-24T00:07:12;15.90;99.90
74488;DHT22;63019;51.080;13.642;2023-06-24T00:08:13;15.90;99.90
74488;DHT22;63019;51.080;13.642;2023-06-24T00:09:15;16.00;99.90
74488;DHT22;63019;51.080;13.642;2023-06-24T00:10:17;16.00;99.90
74488;DHT22;63019;51.080;13.642;2023-06-24T00:11:19;16.00;99.90
74488;DHT22;63019;51.080;13.642;2023-06-24T00:12:21;16.00;99.90
74488;DHT22;63019;51.080;13.642;2023-06-24T00:13:23;16.00;99.90
74488;DHT22;63019;51.080;13.642;2023-06-24T00:14:26;16.00;99.90
74488;DHT22;63019;51.080;13.642;2023-06-24T00:15:28;16.00;99.90
74488;DHT22;63019;51.080;13.642;2023-06-24T00:16:30;16.00;99.90
74488;DHT22;63019;51.080;13.642;2023-06-24T00:17:32;16.00;99.90
74488;DHT22;63019;51.080;13.642;2023-06-24T00:18:37;16.00;99.90
74488;DHT22;63019;51.080;13.642;2023-06-24T00:19:43;16.00;99.90
74488;DHT22;63019;51.080;13.642;2023-06-24T00:20:45;16.00;99.90
74488;DHT22;63019;51.080;13.642;2023-06-24T00:21:48;16.00;99.90
74488;DHT22;63019;51.080;13.642;2023-06-24T00:22:52;16.00;99.90
74488;DHT22;63019;51.080;13.642;2023-06-24T00:23:54;16.00;99.90
74488;DHT22;63019;51.080;13.642;2023-06-24T00:24:56;16.10;99.90
74488;DHT22;63019;51.080;13.642;2023-06-24T00:25:58;16.00;99.90
74488;DHT22;63019;51.080;13.642;2023-06-24T00:27:00;16.10;99.90
74488;DHT22;63019;51.080;13.642;2023-06-24T00:28:02;16.10;99.90
74488;DHT22;63019;51.080;13.642;2023-06-24T00:29:04;16.00;99.90
74488;DHT22;63019;51.080;13.642;2023-06-24T00:30:06;16.00;99.90
74488;DHT22;63019;51.080;13.642;2023-06-24T00:31:08;16.00;99.90
74488;DHT22;63019;51.080;13.642;2023-06-24T00:32:10;16.00;99.90
74488;DHT22;63019;51.080;13.642;2023-06-24T00:33:12;16.00;99.90
74488;DHT22;63019;51.080;13.642;2023-06-24T00:34:15;16.00;99.90
74488;DHT22;63019;51.080;13.642;2023-06-24T00:35:17;16.00;99.90
74488;DHT22;63019;51.080;13.642;2023-06-24T00:36:20;16.00;99.90
74488;DHT22;63019;51.080;13.642;2023-06-24T00:37:22;16.10;99.90
74488;DHT22;63019;51.080;13.642;2023-06-24T00:38:24;16.00;99.90
74488;DHT22;63019;51.080;13.642;2023-06-24T00:39:26;16.00;99.90
74488;DHT22;63019;51.080;13.642;2023-06-24T00:40:27;16.10;99.90
74488;DHT22;63019;51.080;13.642;2023-06-24T00:41:30;16.10;99.90
74488;DHT22;63019;51.080;13.642;2023-06-24T00:42:32;16.10;99.90
74488;DHT22;63019;51.080;13.642;2023-06-24T00:43:34;16.10;99.90
74488;DHT22;63019;51.080;13.642;2023-06-24T00:44:36;16.10;99.90
74488;DHT22;63019;51.080;13.642;2023-06-24T00:45:39;16.10;99.90
74488;DHT22;63019;51.080;13.642;2023-06-24T00:46:41;16.10;99.90
74488;DHT22;63019;51.080;13.642;2023-06-24T00:47:43;16.10;99.90
74488;DHT22;63019;51.080;13.642;2023-06-24T00:48:45;16.10;99.90
74488;DHT22;63019;51.080;13.642;2023-06-24T00:49:47;16.10;99.90
74488;DHT22;63019;51.080;13.642;2023-06-24T00:50:50;16.10;99.90
74488;DHT22;63019;51.080;13.642;2023-06-24T00:51:52;16.10;99.90
74488;DHT22;63019;51.080;13.642;2023-06-24T00:52:53;16.10;99.90
74488;DHT22;63019;51.080;13.642;2023-06-24T00:53:56;16.10;99.90
74488;DHT22;63019;51.080;13.642;2023-06-24T00:54:58;16.20;99.90
74488;DHT22;63019;51.080;13.642;2023-06-24T00:56:00;16.20;99.90
74488;DHT22;63019;51.080;13.642;2023-06-24T00:57:05;16.20;99.90
74488;DHT22;63019;51.080;13.642;2023-06-24T00:58:09;16.20;99.90
74488;DHT22;63019;51.080;13.642;2023-06-24T00:59:15;16.20;99.90
74488;DHT22;63019;51.080;13.642;2023-06-24T01:00:19;16.20;99.90
74488;DHT22;63019;51.080;13.642;2023-06-24T01:01:21;16.20;99.90
74488;DHT22;63019;51.080;13.642;2023-06-24T01:02:23;16.20;99.90
74488;DHT22;63019;51.080;13.642;2023-06-24T01:03:30;16.20;99.90
74488;DHT22;63019;51.080;13.642;2023-06-24T01:04:33;16.20;99.90
74488;DHT22;63019;51.080;13.642;2023-06-24T01:05:35;16.20;99.90
74488;DHT22;63019;51.080;13.642;2023-06-24T01:06:37;16.20;99.90
74488;DHT22;63019;51.080;13.642;2023-06-24T01:07:46;16.20;99.90
74488;DHT22;63019;51.080;13.642;2023-06-24T01:08:57;16.20;99.90
74488;DHT22;63019;51.080;13.642;2023-06-24T01:09:59;16.30;99.90
74488;DHT22;63019;51.080;13.642;2023-06-24T01:11:02;16.30;99.90
74488;DHT22;63019;51.080;13.642;2023-06-24T01:12:04;16.30;99.90
74488;DHT22;63019;51.080;13.642;2023-06-24T01:13:06;16.30;99.90
74488;DHT22;63019;51.080;13.642;2023-06-24T01:14:08;16.30;99.90
74488;DHT22;63019;51.080;13.642;2023-06-24T01:15:10;16.30;99.90
74488;DHT22;63019;51.080;13.642;2023-06-24T01:16:39;16.30;99.90
74488;DHT22;63019;51.080;13.642;2023-06-24T01:18:02;16.30;99.90
74488;DHT22;63019;51.080;13.642;2023-06-24T01:19:23;16.30;99.90
74488;DHT22;63019;51.080;13.642;2023-06-24T01:20:35;16.30;99.90
74488;DHT22;63019;51.080;13.642;2023-06-24T01:24:43;16.30;99.90
74488;DHT22;63019;51.080;13.642;2023-06-24T01:25:57;16.30;99.90
74488;DHT22;63019;51.080;13.642;2023-06-24T01:27:10;16.30;99.90
74488;DHT22;63019;51.080;13.642;2023-06-24T01:31:32;16.30;99.90
74488;DHT22;63019;51.080;13.642;2023-06-24T01:32:54;16.40;99.90
74488;DHT22;63019;51.080;13.642;2023-06-24T01:34:21;16.40;99.90
74488;DHT22;63019;51.080;13.642;2023-06-24T01:35:29;16.40;99.90
74488;DHT22;63019;51.080;13.642;2023-06-24T01:36:34;16.40;99.90
74488;DHT22;63019;51.080;13.642;2023-06-24T01:37:44;16.40;99.90
74488;DHT22;63019;51.080;13.642;2023-06-24T01:38:51;16.40;99.90
74488;DHT22;63019;51.080;13.642;2023-06-24T01:40:20;16.40;99.90
74488;DHT22;63019;51.080;13.642;2023-06-24T01:41:25;16.50;99.90
74488;DHT22;63019;51.080;13.642;2023-06-24T01:42:29;16.40;99.90
74488;DHT22;63019;51.080;13.642;2023-06-24T01:43:33;16.40;99.90
74488;DHT22;63019;51.080;13.642;2023-06-24T01:44:38;16.40;99.90
74488;DHT22;63019;51.080;13.642;2023-06-24T01:45:52;16.40;99.90
74488;DHT22;63019;51.080;13.642;2023-06-24T01:46:58;16.40;99.90
74488;DHT22;63019;51.080;13.642;2023-06-24T01:48:09;16.40;99.90
74488;DHT22;63019;51.080;13.642;2023-06-24T01:49:14;16.50;99.90
74488;DHT22;63019;51.080;13.642;2023-06-24T01:50:20;16.40;99.90
74488;DHT22;63019;51.080;13.642;2023-06-24T01:51:24;16.40;99.90
74488;DHT22;63019;51.080;13.642;2023-06-24T01:52:29;16.40;99.90
74488;DHT22;63019;51.080;13.642;2023-06-24T01:53:35;16.40;99.90
74488;DHT22;63019;51.080;13.642;2023-06-24T01:54:41;16.40;99.90
74488;DHT22;63019;51.080;13.642;2023-06-24T01:55:44;16.40;99.90
74488;DHT22;63019;51.080;13.642;2023-06-24T01:56:48;16.40;99.90
74488;DHT22;63019;51.080;13.642;2023-06-24T01:57:51;16.50;99.90
74488;DHT22;63019;51.080;13.642;2023-06-24T01:58:56;16.50;99.90
74488;DHT22;63019;51.080;13.642;2023-06-24T02:00:00;16.50;99.90
74488;DHT22;63019;51.080;13.642;2023-06-24T02:01:03;16.50;99.90
74488;DHT22;63019;51.080;13.642;2023-06-24T02:02:06;16.50;99.90
74488;DHT22;63019;51.080;13.642;2023-06-24T02:03:09;16.50;99.90
74488;DHT22;63019;51.080;13.642;2023-06-24T02:04:12;16.50;99.90
74488;DHT22;63019;51.080;13.642;2023-06-24T02:05:15;16.50;99.90
74488;DHT22;63019;51.080;13.642;2023-06-24T02:06:19;16.50;99.90
74488;DHT22;63019;51.080;13.642;2023-06-24T02:07:23;16.50;99.90
74488;DHT22;63019;51.080;13.642;2023-06-24T02:08:29;16.40;99.90
74488;DHT22;63019;51.080;13.642;2023-06-24T02:09:33;16.50;99.90
74488;DHT22;63019;51.080;13.642;2023-06-24T02:10:38;16.50;99.90
74488;DHT22;63019;51.080;13.642;2023-06-24T02:11:41;16.50;99.90
74488;DHT22;63019;51.080;13.642;2023-06-24T02:12:46;16.50;99.90
74488;DHT22;63019;51.080;13.642;2023-06-24T02:13:49;16.50;99.90
74488;DHT22;63019;51.080;13.642;2023-06-24T02:14:52;16.50;99.90
74488;DHT22;63019;51.080;13.642;2023-06-24T02:15:56;16.50;99.90
74488;DHT22;63019;51.080;13.642;2023-06-24T02:16:59;16.50;99.90
74488;DHT22;63019;51.080;13.642;2023-06-24T02:18:04;16.50;99.90
74488;DHT22;63019;51.080;13.642;2023-06-24T02:19:06;16.50;99.90
74488;DHT22;63019;51.080;13.642;2023-06-24T02:20:10;16.50;99.90
74488;DHT22;63019;51.080;13.642;2023-06-24T02:21:13;16.50;99.90
74488;DHT22;63019;51.080;13.642;2023-06-24T02:22:17;16.50;99.90
74488;DHT22;63019;51.080;13.642;2023-06-24T02:23:20;16.50;99.90
74488;DHT22;63019;51.080;13.642;2023-06-24T02:24:23;16.50;99.90
74488;DHT22;63019;51.080;13.642;2023-06-24T02:25:26;16.50;99.90
74488;DHT22;63019;51.080;13.642;2023-06-24T02:26:28;16.50;99.90
74488;DHT22;63019;51.080;13.642;2023-06-24T02:27:30;16.50;99.90
74488;DHT22;63019;51.080;13.642;2023-06-24T02:28:34;16.50;99.90
74488;DHT22;63019;51.080;13.642;2023-06-24T02:29:37;16.50;99.90
74488;DHT22;63019;51.080;13.642;2023-06-24T02:30:41;16.50;99.90
74488;DHT22;63019;51.080;13.642;2023-06-24T02:31:44;16.50;99.90
74488;DHT22;63019;51.080;13.642;2023-06-24T02:32:46;16.50;99.90
74488;DHT22;63019;51.080;13.642;2023-06-24T02:33:48;16.50;99.90
74488;DHT22;63019;51.080;13.642;2023-06-24T02:34:50;16.50;99.90
74488;DHT22;63019;51.080;13.642;2023-06-24T02:35:55;16.50;99.90
74488;DHT22;63019;51.080;13.642;2023-06-24T02:36:57;16.50;99.90
74488;DHT22;63019;51.080;13.642;2023-06-24T02:37:59;16.40;99.90
74488;DHT22;63019;51.080;13.642;2023-06-24T02:39:01;16.50;99.90
74488;DHT22;63019;51.080;13.642;2023-06-24T02:40:03;16.50;99.90
74488;DHT22;63019;51.080;13.642;2023-06-24T02:41:07;16.50;99.90
74488;DHT22;63019;51.080;13.642;2023-06-24T02:42:08;16.50;99.90
74488;DHT22;63019;51.080;13.642;2023-06-24T02:43:10;16.50;99.90
74488;DHT22;63019;51.080;13.642;2023-06-24T02:44:13;16.50;99.90
74488;DHT22;63019;51.080;13.642;2023-06-24T02:45:15;16.50;99.90
74488;DHT22;63019;51.080;13.642;2023-06-24T02:46:17;16.50;99.90
74488;DHT22;63019;51.080;13.642;2023-06-24T02:47:21;16.50;99.90
74488;DHT22;63019;51.080;13.642;2023-06-24T02:48:23;16.50;99.90
74488;DHT22;63019;51.080;13.642;2023-06-24T02:49:27;16.40;99.90
74488;DHT22;63019;51.080;13.642;2023-06-24T02:50:30;16.40;99.90
74488;DHT22;63019;51.080;13.642;2023-06-24T02:51:33;16.40;99.90
74488;DHT22;63019;51.080;13.642;2023-06-24T02:52:35;16.40;99.90
74488;DHT22;63019;51.080;13.642;2023-06-24T02:53:39;16.40;99.90
74488;DHT22;63019;51.080;13.642;2023-06-24T02:54:41;16.40;99.90
74488;DHT22;63019;51.080;13.642;2023-06-24T02:55:44;16.40;99.90
74488;DHT22;63019;51.080;13.642;2023-06-24T02:56:47;16.40;99.90
74488;DHT22;63019;51.080;13.642;2023-06-24T02:57:50;16.40;99.90
74488;DHT22;63019;51.080;13.642;2023-06-24T02:58:53;16.40;99.90
74488;DHT22;63019;51.080;13.642;2023-06-24T02:59:55;16.40;99.90
74488;DHT22;63019;51.080;13.642;2023-06-24T03:01:00;16.40;99.90
74488;DHT22;63019;51.080;13.642;2023-06-24T03:02:04;16.50;99.90
74488;DHT22;63019;51.080;13.642;2023-06-24T03:03:07;16.40;99.90
74488;DHT22;63019;51.080;13.642;2023-06-24T03:04:09;16.40;99.90
74488;DHT22;63019;51.080;13.642;2023-06-24T03:05:11;16.40;99.90
74488;DHT22;63019;51.080;13.642;2023-06-24T03:06:13;16.40;99.90
74488;DHT22;63019;51.080;13.642;2023-06-24T03:07:19;16.40;99.90
74488;DHT22;63019;51.080;13.642;2023-06-24T03:08:23;16.40;99.90
74488;DHT22;63019;51.080;13.642;2023-06-24T03:09:33;16.40;99.90
74488;DHT22;63019;51.080;13.642;2023-06-24T03:10:36;16.40;99.90
74488;DHT22;63019;51.080;13.642;2023-06-24T03:11:45;16.40;99.90
74488;DHT22;63019;51.080;13.642;2023-06-24T03:12:47;16.40;99.90
74488;DHT22;63019;51.080;13.642;2023-06-24T03:13:49;16.40;99.90
74488;DHT22;63019;51.080;13.642;2023-06-24T03:14:51;16.30;99.90
74488;DHT22;63019;51.080;13.642;2023-06-24T03:15:53;16.30;99.90
74488;DHT22;63019;51.080;13.642;2023-06-24T03:16:55;16.30;99.90
74488;DHT22;63019;51.080;13.642;2023-06-24T03:17:57;16.30;99.90
74488;DHT22;63019;51.080;13.642;2023-06-24T03:18:59;16.30;99.90
74488;DHT22;63019;51.080;13.642;2023-06-24T03:20:00;16.30;99.90
74488;DHT22;63019;51.080;13.642;2023-06-24T03:21:02;16.30;99.90
74488;DHT22;63019;51.080;13.642;2023-06-24T03:22:04;16.30;99.90
74488;DHT22;63019;51.080;13.642;2023-06-24T03:23:06;16.30;99.90
74488;DHT22;63019;51.080;13.642;2023-06-24T03:24:09;16.30;99.90
74488;DHT22;63019;51.080;13.642;2023-06-24T03:25:11;16.30;99.90
74488;DHT22;63019;51.080;13.642;2023-06-24T03:26:12;16.20;99.90
74488;DHT22;63019;51.080;13.642;2023-06-24T03:27:14;16.20;99.90
74488;DHT22;63019;51.080;13.642;2023-06-24T03:28:16;16.20;99.90
74488;DHT22;63019;51.080;13.642;2023-06-24T03:29:18;16.20;99.90
74488;DHT22;63019;51.080;13.642;2023-06-24T03:30:20;16.20;99.90
74488;DHT22;63019;51.080;13.642;2023-06-24T03:31:21;16.20;99.90
74488;DHT22;63019;51.080;13.642;2023-06-24T03:32:24;16.10;99.90
74488;DHT22;63019;51.080;13.642;2023-06-24T03:33:26;16.10;99.90
74488;DHT22;63019;51.080;13.642;2023-06-24T03:34:28;16.10;99.90
74488;DHT22;63019;51.080;13.642;2023-06-24T03:35:31;16.10;99.90
74488;DHT22;63019;51.080;13.642;2023-06-24T03:36:34;16.10;99.90
74488;DHT22;63019;51.080;13.642;2023-06-24T03:37:40;16.10;99.90
74488;DHT22;63019;51.080;13.642;2023-06-24T03:38:41;16.10;99.90
74488;DHT22;63019;51.080;13.642;2023-06-24T03:39:43;16.10;99.90
74488;DHT22;63019;51.080;13.642;2023-06-24T03:40:45;16.10;99.90
74488;DHT22;63019;51.080;13.642;2023-06-24T03:41:47;16.10;99.90
74488;DHT22;63019;51.080;13.642;2023-06-24T03:42:49;16.10;99.90
74488;DHT22;63019;51.080;13.642;2023-06-24T03:43:51;16.10;99.90
74488;DHT22;63019;51.080;13.642;2023-06-24T03:44:53;16.10;99.90
74488;DHT22;63019;51.080;13.642;2023-06-24T03:45:54;16.10;99.90
74488;DHT22;63019;51.080;13.642;2023-06-24T03:46:57;16.10;99.90
74488;DHT22;63019;51.080;13.642;2023-06-24T03:47:58;16.10;99.90
74488;DHT22;63019;51.080;13.642;2023-06-24T03:49:00;16.10;99.90
74488;DHT22;63019;51.080;13.642;2023-06-24T03:50:02;16.00;99.90
74488;DHT22;63019;51.080;13.642;2023-06-24T03:51:04;16.00;99.90
74488;DHT22;63019;51.080;13.642;2023-06-24T03:52:06;16.00;99.90
74488;DHT22;63019;51.080;13.642;2023-06-24T03:53:11;16.00;99.90
74488;DHT22;63019;51.080;13.642;2023-06-24T03:54:13;16.00;99.90
74488;DHT22;63019;51.080;13.642;2023-06-24T03:55:14;16.00;99.90
74488;DHT22;63019;51.080;13.642;2023-06-24T03:56:16;16.00;99.90
74488;DHT22;63019;51.080;13.642;2023-06-24T03:57:19;16.00;99.90
74488;DHT22;63019;51.080;13.642;2023-06-24T03:58:20;16.00;99.90
74488;DHT22;63019;51.080;13.642;2023-06-24T03:59:22;16.00;99.90
74488;DHT22;63019;51.080;13.642;2023-06-24T04:00:24;16.00;99.90
74488;DHT22;63019;51.080;13.642;2023-06-24T04:01:27;16.00;99.90
74488;DHT22;63019;51.080;13.642;2023-06-24T04:02:33;16.00;99.90
74488;DHT22;63019;51.080;13.642;2023-06-24T04:03:35;16.00;99.90
74488;DHT22;63019;51.080;13.642;2023-06-24T04:04:37;16.10;99.90
74488;DHT22;63019;51.080;13.642;2023-06-24T04:05:39;16.10;99.90
74488;DHT22;63019;51.080;13.642;2023-06-24T04:06:41;16.10;99.90
74488;DHT22;63019;51.080;13.642;2023-06-24T04:07:43;16.10;99.90
74488;DHT22;63019;51.080;13.642;2023-06-24T04:08:48;16.10;99.90
74488;DHT22;63019;51.080;13.642;2023-06-24T04:09:50;16.20;99.90
74488;DHT22;63019;51.080;13.642;2023-06-24T04:10:52;16.20;99.90
74488;DHT22;63019;51.080;13.642;2023-06-24T04:11:54;16.20;99.90
74488;DHT22;63019;51.080;13.642;2023-06-24T04:12:56;16.20;99.90
74488;DHT22;63019;51.080;13.642;2023-06-24T04:13:57;16.20;99.90
74488;DHT22;63019;51.080;13.642;2023-06-24T04:14:59;16.30;99.90
74488;DHT22;63019;51.080;13.642;2023-06-24T04:16:01;16.30;99.90
74488;DHT22;63019;51.080;13.642;2023-06-24T04:17:03;16.30;99.90
74488;DHT22;63019;51.080;13.642;2023-06-24T04:18:05;16.40;99.90
74488;DHT22;63019;51.080;13.642;2023-06-24T04:19:07;16.40;99.90
74488;DHT22;63019;51.080;13.642;2023-06-24T04:20:09;16.40;99.90
74488;DHT22;63019;51.080;13.642;2023-06-24T04:21:11;16.40;99.90
74488;DHT22;63019;51.080;13.642;2023-06-24T04:22:13;16.40;99.90
74488;DHT22;63019;51.080;13.642;2023-06-24T04:23:15;16.40;99.90
74488;DHT22;63019;51.080;13.642;2023-06-24T04:24:17;16.40;99.90
74488;DHT22;63019;51.080;13.642;2023-06-24T04:25:19;16.40;99.90
74488;DHT22;63019;51.080;13.642;2023-06-24T04:26:20;16.40;99.90
74488;DHT22;63019;51.080;13.642;2023-06-24T04:27:22;16.40;99.90
74488;DHT22;63019;51.080;13.642;2023-06-24T04:28:24;16.40;99.90
74488;DHT22;63019;51.080;13.642;2023-06-24T04:29:26;16.40;99.90
74488;DHT22;63019;51.080;13.642;2023-06-24T04:30:27;16.40;99.90
74488;DHT22;63019;51.080;13.642;2023-06-24T04:31:29;16.40;99.90
74488;DHT22;63019;51.080;13.642;2023-06-24T04:32:31;16.40;99.90
74488;DHT22;63019;51.080;13.642;2023-06-24T04:33:33;16.50;99.90
74488;DHT22;63019;51.080;13.642;2023-06-24T04:34:35;16.40;99.90
74488;DHT22;63019;51.080;13.642;2023-06-24T04:35:37;16.40;99.90
74488;DHT22;63019;51.080;13.642;2023-06-24T04:36:39;16.50;99.90
74488;DHT22;63019;51.080;13.642;2023-06-24T04:37:41;16.50;99.90
74488;DHT22;63019;51.080;13.642;2023-06-24T04:38:43;16.50;99.90
74488;DHT22;63019;51.080;13.642;2023-06-24T04:39:45;16.50;99.90
74488;DHT22;63019;51.080;13.642;2023-06-24T04:40:47;16.50;99.90
74488;DHT22;63019;51.080;13.642;2023-06-24T04:41:49;16.50;99.90
74488;DHT22;63019;51.080;13.642;2023-06-24T04:42:51;16.50;99.90
74488;DHT22;63019;51.080;13.642;2023-06-24T04:43:52;16.40;99.90
74488;DHT22;63019;51.080;13.642;2023-06-24T04:44:55;16.50;99.90
74488;DHT22;63019;51.080;13.642;2023-06-24T04:45:57;16.50;99.90
74488;DHT22;63019;51.080;13.642;2023-06-24T04:46:59;16.50;99.90
74488;DHT22;63019;51.080;13.642;2023-06-24T04:48:00;16.50;99.90
74488;DHT22;63019;51.080;13.642;2023-06-24T04:49:02;16.50;99.90
74488;DHT22;63019;51.080;13.642;2023-06-24T04:50:05;16.50;99.90
74488;DHT22;63019;51.080;13.642;2023-06-24T04:51:07;16.50;99.90
74488;DHT22;63019;51.080;13.642;2023-06-24T04:52:09;16.50;99.90
74488;DHT22;63019;51.080;13.642;2023-06-24T04:53:12;16.40;99.90
74488;DHT22;63019;51.080;13.642;2023-06-24T04:54:14;16.40;99.90
74488;DHT22;63019;51.080;13.642;2023-06-24T04:55:16;16.40;99.90
74488;DHT22;63019;51.080;13.642;2023-06-24T04:56:18;16.40;99.90
74488;DHT22;63019;51.080;13.642;2023-06-24T04:57:30;16.40;99.90
74488;DHT22;63019;51.080;13.642;2023-06-24T04:58:32;16.40;99.90
74488;DHT22;63019;51.080;13.642;2023-06-24T04:59:34;16.40;99.90
74488;DHT22;63019;51.080;13.642;2023-06-24T05:00:36;16.40;99.90
74488;DHT22;63019;51.080;13.642;2023-06-24T05:01:38;16.40;99.90
74488;DHT22;63019;51.080;13.642;2023-06-24T05:02:40;16.40;99.90
74488;DHT22;63019;51.080;13.642;2023-06-24T05:03:42;16.40;99.90
74488;DHT22;63019;51.080;13.642;2023-06-24T05:04:44;16.40;99.90
74488;DHT22;63019;51.080;13.642;2023-06-24T05:05:46;16.40;99.90
74488;DHT22;63019;51.080;13.642;2023-06-24T05:06:48;16.40;99.90
74488;DHT22;63019;51.080;13.642;2023-06-24T05:07:50;16.40;99.90
74488;DHT22;63019;51.080;13.642;2023-06-24T05:08:52;16.40;99.90
74488;DHT22;63019;51.080;13.642;2023-06-24T05:09:53;16.50;99.90
74488;DHT22;63019;51.080;13.642;2023-06-24T05:10:55;16.50;99.90
74488;DHT22;63019;51.080;13.642;2023-06-24T05:11:57;16.50;99.90
74488;DHT22;63019;51.080;13.642;2023-06-24T05:12:59;16.50;99.90
74488;DHT22;63019;51.080;13.642;2023-06-24T05:14:01;16.50;99.90
74488;DHT22;63019;51.080;13.642;2023-06-24T05:15:03;16.50;99.90
74488;DHT22;63019;51.080;13.642;2023-06-24T05:16:05;16.50;99.90
74488;DHT22;63019;51.080;13.642;2023-06-24T05:17:07;16.50;99.90
74488;DHT22;63019;51.080;13.642;2023-06-24T05:18:09;16.50;99.90
74488;DHT22;63019;51.080;13.642;2023-06-24T05:19:11;16.50;99.90
74488;DHT22;63019;51.080;13.642;2023-06-24T05:20:13;16.50;99.90
74488;DHT22;63019;51.080;13.642;2023-06-24T05:21:15;16.50;99.90
74488;DHT22;63019;51.080;13.642;2023-06-24T05:22:17;16.60;99.90
74488;DHT22;63019;51.080;13.642;2023-06-24T05:23:19;16.60;99.90
74488;DHT22;63019;51.080;13.642;2023-06-24T05:24:21;16.60;99.90
74488;DHT22;63019;51.080;13.642;2023-06-24T05:25:22;16.60;99.90
74488;DHT22;63019;51.080;13.642;2023-06-24T05:26:25;16.60;99.90
74488;DHT22;63019;51.080;13.642;2023-06-24T05:27:27;16.60;99.90
74488;DHT22;63019;51.080;13.642;2023-06-24T05:28:28;16.70;99.90
74488;DHT22;63019;51.080;13.642;2023-06-24T05:29:30;16.70;99.90
74488;DHT22;63019;51.080;13.642;2023-06-24T05:30:32;16.70;99.90
74488;DHT22;63019;51.080;13.642;2023-06-24T05:31:34;16.70;99.90
74488;DHT22;63019;51.080;13.642;2023-06-24T05:32:36;16.70;99.90
74488;DHT22;63019;51.080;13.642;2023-06-24T05:33:38;16.70;99.90
74488;DHT22;63019;51.080;13.642;2023-06-24T05:34:40;16.70;99.90
74488;DHT22;63019;51.080;13.642;2023-06-24T05:35:45;16.60;99.90
74488;DHT22;63019;51.080;13.642;2023-06-24T05:36:47;16.60;99.90
74488;DHT22;63019;51.080;13.642;2023-06-24T05:37:49;16.70;99.90
74488;DHT22;63019;51.080;13.642;2023-06-24T05:38:50;16.70;99.90
74488;DHT22;63019;51.080;13.642;2023-06-24T05:39:52;16.70;99.90
74488;DHT22;63019;51.080;13.642;2023-06-24T05:40:54;16.70;99.90
74488;DHT22;63019;51.080;13.642;2023-06-24T05:41:56;16.70;99.90
74488;DHT22;63019;51.080;13.642;2023-06-24T05:42:58;16.70;99.90
74488;DHT22;63019;51.080;13.642;2023-06-24T05:44:04;16.70;99.90
74488;DHT22;63019;51.080;13.642;2023-06-24T05:45:07;16.70;99.90
74488;DHT22;63019;51.080;13.642;2023-06-24T05:46:09;16.70;99.90
74488;DHT22;63019;51.080;13.642;2023-06-24T05:47:11;16.70;99.90
74488;DHT22;63019;51.080;13.642;2023-06-24T05:48:12;16.60;99.90
74488;DHT22;63019;51.080;13.642;2023-06-24T05:49:16;16.60;99.90
74488;DHT22;63019;51.080;13.642;2023-06-24T05:50:18;16.60;99.90
74488;DHT22;63019;51.080;13.642;2023-06-24T05:51:20;16.60;99.90
74488;DHT22;63019;51.080;13.642;2023-06-24T05:52:24;16.60;99.90
74488;DHT22;63019;51.080;13.642;2023-06-24T05:53:26;16.60;99.90
74488;DHT22;63019;51.080;13.642;2023-06-24T05:54:28;16.60;99.90
74488;DHT22;63019;51.080;13.642;2023-06-24T05:55:30;16.60;99.90
74488;DHT22;63019;51.080;13.642;2023-06-24T05:56:32;16.60;99.90
74488;DHT22;63019;51.080;13.642;2023-06-24T05:57:34;16.60;99.90
74488;DHT22;63019;51.080;13.642;2023-06-24T05:58:35;16.60;99.90
74488;DHT22;63019;51.080;13.642;2023-06-24T05:59:37;16.60;99.90
74488;DHT22;63019;51.080;13.642;2023-06-24T06:00:39;16.60;99.90
74488;DHT22;63019;51.080;13.642;2023-06-24T06:01:41;16.50;99.90
74488;DHT22;63019;51.080;13.642;2023-06-24T06:02:43;16.50;99.90
74488;DHT22;63019;51.080;13.642;2023-06-24T06:03:45;16.50;99.90
74488;DHT22;63019;51.080;13.642;2023-06-24T06:04:47;16.50;99.90
74488;DHT22;63019;51.080;13.642;2023-06-24T06:05:49;16.40;99.90
74488;DHT22;63019;51.080;13.642;2023-06-24T06:06:51;16.50;99.90
74488;DHT22;63019;51.080;13.642;2023-06-24T06:07:53;16.40;99.90
74488;DHT22;63019;51.080;13.642;2023-06-24T06:08:56;16.50;99.90
74488;DHT22;63019;51.080;13.642;2023-06-24T06:09:59;16.50;99.90
74488;DHT22;63019;51.080;13.642;2023-06-24T06:11:01;16.50;99.90
74488;DHT22;63019;51.080;13.642;2023-06-24T06:12:04;16.50;99.90
74488;DHT22;63019;51.080;13.642;2023-06-24T06:13:06;16.50;99.90
74488;DHT22;63019;51.080;13.642;2023-06-24T06:14:08;16.50;99.90
74488;DHT22;63019;51.080;13.642;2023-06-24T06:15:10;16.50;99.90
74488;DHT22;63019;51.080;13.642;2023-06-24T06:16:12;16.50;99.90
74488;DHT22;63019;51.080;13.642;2023-06-24T06:17:14;16.50;99.90
74488;DHT22;63019;51.080;13.642;2023-06-24T06:18:16;16.40;99.90
74488;DHT22;63019;51.080;13.642;2023-06-24T06:19:18;16.40;99.90
74488;DHT22;63019;51.080;13.642;2023-06-24T06:20:20;16.30;99.90
74488;DHT22;63019;51.080;13.642;2023-06-24T06:21:22;16.30;99.90
74488;DHT22;63019;51.080;13.642;2023-06-24T06:22:23;16.20;99.90
74488;DHT22;63019;51.080;13.642;2023-06-24T06:23:25;16.20;99.90
74488;DHT22;63019;51.080;13.642;2023-06-24T06:24:28;16.20;99.90
74488;DHT22;63019;51.080;13.642;2023-06-24T06:25:30;16.20;99.90
74488;DHT22;63019;51.080;13.642;2023-06-24T06:26:32;16.20;99.90
74488;DHT22;63019;51.080;13.642;2023-06-24T06:27:34;16.20;99.90
74488;DHT22;63019;51.080;13.642;2023-06-24T06:28:36;16.20;99.90
74488;DHT22;63019;51.080;13.642;2023-06-24T06:29:38;16.20;99.90
74488;DHT22;63019;51.080;13.642;2023-06-24T06:30:40;16.20;99.90
74488;DHT22;63019;51.080;13.642;2023-06-24T06:31:41;16.20;99.90
74488;DHT22;63019;51.080;13.642;2023-06-24T06:32:43;16.30;99.90
74488;DHT22;63019;51.080;13.642;2023-06-24T06:33:45;16.30;99.90
74488;DHT22;63019;51.080;13.642;2023-06-24T06:34:47;16.30;99.90
74488;DHT22;63019;51.080;13.642;2023-06-24T06:35:49;16.30;99.90
74488;DHT22;63019;51.080;13.642;2023-06-24T06:36:51;16.30;99.90
74488;DHT22;63019;51.080;13.642;2023-06-24T06:37:53;16.30;99.90
74488;DHT22;63019;51.080;13.642;2023-06-24T06:38:58;16.30;99.90